Time;durP1;ratioP1;P1;durP2;ratioP2;P2;SDS_P1;SDS_P2;PMS_P1;PMS_P2;Temp;Humidity;BMP_temperature;BMP_pressure;BME280_temperature;BME280_humidity;BME280_pressure;Samples;Min_cycle;Max_cycle;Signal;HPM_P1;HPM_P2
2023/02/27 00:01:15;;;;;;;0.80;0.80;;;7.50;91.30;;;;;;5066690;28;20060;-71
2023/02/27 00:03:40;;;;;;;0.70;0.70;;;7.60;91.30;;;;;;5032265;28;20483;-70
2023/02/27 00:06:06;;;;;;;0.60;0.60;;;7.60;91.30;;;;;;5066710;28;20037;-70
2023/02/27 00:08:32;;;;;;;0.60;0.60;;;7.60;91.20;;;;;;5066562;28;20484;-70
2023/02/27 00:10:57;;;;;;;0.60;0.60;;;7.60;91.20;;;;;;5066567;28;20578;-70
2023/02/27 00:13:23;;;;;;;0.70;0.70;;;7.70;91.30;;;;;;5051189;28;20031;-70
2023/02/27 00:15:49;;;;;;;0.70;0.70;;;7.70;91.30;;;;;;5052514;28;20451;-70
2023/02/27 00:18:15;;;;;;;0.60;0.60;;;7.70;91.30;;;;;;5070212;28;20488;-70
2023/02/27 00:20:41;;;;;;;0.70;0.70;;;7.80;91.30;;;;;;5070127;28;20040;-70
2023/02/27 00:23:09;;;;;;;0.80;0.80;;;7.80;91.30;;;;;;5069878;28;20029;-70
2023/02/27 00:25:35;;;;;;;0.65;0.65;;;7.80;91.30;;;;;;5070115;28;20083;-70
2023/02/27 00:28:01;;;;;;;;;;;7.80;91.30;;;;;;5052604;28;20020;-70
2023/02/27 00:30:27;;;;;;;0.80;0.80;;;7.80;91.40;;;;;;5051930;28;19951;-70
2023/02/27 00:32:53;;;;;;;0.90;0.90;;;7.80;91.40;;;;;;5070127;28;20059;-70
2023/02/27 00:35:19;;;;;;;1.00;1.00;;;7.80;91.40;;;;;;5069899;28;20093;-70
2023/02/27 00:37:45;;;;;;;1.30;1.20;;;7.80;91.50;;;;;;5069866;28;20112;-70
2023/02/27 00:40:12;;;;;;;1.30;1.20;;;7.70;91.50;;;;;;5069785;28;20044;-70
2023/02/27 00:42:38;;;;;;;1.30;1.20;;;7.80;91.60;;;;;;5070254;28;20035;-70
2023/02/27 00:45:05;;;;;;;1.48;1.38;;;7.80;91.60;;;;;;5052131;28;20064;-70
2023/02/27 00:47:32;;;;;;;1.33;1.23;;;7.80;91.60;;;;;;5051684;28;20112;-70
2023/02/27 00:49:58;;;;;;;1.30;1.20;;;7.80;91.60;;;;;;5051898;28;20039;-71
2023/02/27 00:52:24;;;;;;;1.50;1.40;;;7.90;91.60;;;;;;5069767;28;20510;-71
2023/02/27 00:54:50;;;;;;;1.50;1.40;;;7.90;91.60;;;;;;5069762;28;20032;-71
2023/02/27 00:57:16;;;;;;;1.33;1.23;;;7.90;91.60;;;;;;5069594;28;20025;-70
2023/02/27 00:59:42;;;;;;;1.30;1.20;;;8.00;91.60;;;;;;5069459;28;20025;-70
2023/02/27 01:02:07;;;;;;;1.20;1.15;;;8.00;91.60;;;;;;5034949;28;20020;-70
2023/02/27 01:04:33;;;;;;;1.00;1.00;;;8.00;91.70;;;;;;5069402;28;20032;-70
2023/02/27 01:06:59;;;;;;;1.05;1.05;;;8.00;91.60;;;;;;5069381;28;20016;-71
2023/02/27 01:09:25;;;;;;;1.10;1.10;;;8.00;91.60;;;;;;5051478;28;20029;-70
2023/02/27 01:11:51;;;;;;;1.10;1.10;;;8.10;91.60;;;;;;5034579;28;20032;-70
2023/02/27 01:14:17;;;;;;;;;;;8.10;91.60;;;;;;5069713;28;20032;-70
2023/02/27 01:16:42;;;;;;;0.90;0.90;;;8.10;91.60;;;;;;5069224;28;19915;-70
2023/02/27 01:19:08;;;;;;;0.80;0.80;;;8.10;91.50;;;;;;5069139;28;20036;-70
2023/02/27 01:21:34;;;;;;;0.70;0.70;;;8.10;91.50;;;;;;5069185;28;20036;-70
2023/02/27 01:24:00;;;;;;;0.60;0.60;;;8.10;91.50;;;;;;5068300;28;20028;-70
2023/02/27 01:26:26;;;;;;;;;;;8.10;91.50;;;;;;5069445;28;20380;-70
2023/02/27 01:28:52;;;;;;;0.30;0.30;;;8.20;91.50;;;;;;5068959;28;19912;-70
2023/02/27 01:31:17;;;;;;;0.30;0.30;;;8.20;91.50;;;;;;5068924;28;20032;-71
2023/02/27 01:33:43;;;;;;;0.20;0.20;;;8.20;91.50;;;;;;5068922;28;20373;-70
2023/02/27 01:36:09;;;;;;;0.20;0.20;;;8.20;91.50;;;;;;5034349;28;20026;-71
2023/02/27 01:38:35;;;;;;;0.20;0.20;;;8.20;91.50;;;;;;5068645;28;20093;-70
2023/02/27 01:41:01;;;;;;;0.20;0.20;;;8.20;91.60;;;;;;5068786;28;20111;-70
2023/02/27 01:43:27;;;;;;;;;;;8.20;91.60;;;;;;5069097;28;20035;-71
2023/02/27 01:45:53;;;;;;;0.00;0.00;;;8.20;91.80;;;;;;5068482;28;19916;-70
2023/02/27 01:48:22;;;;;;;;;;;8.20;91.50;;;;;;5069000;28;20032;-70
2023/02/27 01:50:56;;;;;;;0.10;0.10;;;8.20;91.50;;;;;;5068585;28;19908;-71
2023/02/27 01:53:24;;;;;;;0.10;0.10;;;8.20;91.50;;;;;;5050527;28;20024;-71
2023/02/27 01:55:58;;;;;;;0.10;0.10;;;8.20;91.50;;;;;;5068468;28;20021;-70
2023/02/27 01:58:25;;;;;;;0.10;0.10;;;8.10;91.50;;;;;;5068355;28;20099;-71
2023/02/27 02:00:52;;;;;;;0.10;0.10;;;8.10;91.60;;;;;;5068353;28;20490;-70
2023/02/27 02:03:40;;;;;;;;;;;8.00;91.60;;;;;;5068806;28;20296;-70
2023/02/27 02:06:07;;;;;;;0.00;0.00;;;8.00;91.60;;;;;;5057285;28;19904;-71
2023/02/27 02:08:42;;;;;;;0.03;0.03;;;8.00;91.50;;;;;;5068086;28;20256;-70
2023/02/27 02:11:09;;;;;;;0.00;0.00;;;7.90;91.50;;;;;;5068158;28;20027;-70
2023/02/27 02:13:37;;;;;;;0.00;0.00;;;7.70;91.40;;;;;;5068175;28;20025;-71
2023/02/27 02:16:08;;;;;;;0.00;0.00;;;7.60;91.40;;;;;;5068407;28;20052;-71
2023/02/27 02:18:52;;;;;;;0.00;0.00;;;7.50;91.40;;;;;;5067900;28;20119;-71
2023/02/27 02:21:39;;;;;;;0.00;0.00;;;7.30;91.30;;;;;;5050136;28;20410;-71
2023/02/27 02:24:11;;;;;;;0.00;0.00;;;7.20;91.30;;;;;;5068112;28;20043;-70
2023/02/27 02:26:58;;;;;;;0.00;0.00;;;7.10;91.40;;;;;;5067881;28;20475;-71
2023/02/27 02:29:33;;;;;;;;;;;7.00;91.40;;;;;;5068249;28;20035;-71
2023/02/27 02:32:18;;;;;;;0.00;0.00;;;6.90;91.40;;;;;;5067727;28;20399;-70
2023/02/27 02:34:53;;;;;;;0.10;0.10;;;6.80;91.30;;;;;;5067757;28;20036;-70
2023/02/27 02:37:43;;;;;;;0.10;0.10;;;6.70;91.30;;;;;;5067702;28;20086;-70
2023/02/27 02:40:18;;;;;;;0.20;0.20;;;6.70;91.30;;;;;;5049689;28;20024;-70
2023/02/27 02:42:44;;;;;;;0.30;0.30;;;6.80;91.40;;;;;;5067775;28;20060;-71
2023/02/27 02:45:13;;;;;;;0.40;0.40;;;6.80;91.50;;;;;;5049705;28;20056;-70
2023/02/27 02:48:06;;;;;;;0.40;0.40;;;6.90;91.50;;;;;;5067519;28;20115;-70
2023/02/27 02:50:47;;;;;;;0.30;0.30;;;7.00;91.50;;;;;;5067362;28;20028;-70
2023/02/27 02:53:39;;;;;;;0.40;0.40;;;7.10;91.50;;;;;;5067515;28;20024;-70
2023/02/27 02:56:16;;;;;;;0.40;0.40;;;7.30;91.50;;;;;;5049502;28;20046;-71
2023/02/27 02:58:42;;;;;;;;;;;7.30;91.40;;;;;;5067935;28;20021;-71
2023/02/27 03:01:15;;;;;;;0.30;0.30;;;7.40;91.40;;;;;;5067480;28;19911;-70
2023/02/27 03:03:48;;;;;;;0.30;0.30;;;7.40;91.30;;;;;;5049560;28;20431;-70
2023/02/27 03:06:19;;;;;;;0.20;0.20;;;7.30;91.20;;;;;;5067515;28;20062;-70
2023/02/27 03:08:55;;;;;;;0.30;0.30;;;7.20;91.10;;;;;;5067432;28;20468;-70
2023/02/27 03:11:25;;;;;;;0.30;0.30;;;7.10;91.10;;;;;;5067281;28;20101;-70
2023/02/27 03:13:58;;;;;;;0.30;0.30;;;6.90;91.10;;;;;;5067492;28;20484;-70
2023/02/27 03:16:29;;;;;;;0.40;0.40;;;6.80;91.20;;;;;;5067784;28;20108;-70
2023/02/27 03:19:06;;;;;;;0.50;0.50;;;6.70;91.20;;;;;;5067163;28;20020;-70
2023/02/27 03:21:50;;;;;;;0.60;0.60;;;6.50;91.20;;;;;;5067452;28;20025;-70
2023/02/27 03:24:23;;;;;;;0.90;0.90;;;6.40;91.20;;;;;;5067262;28;20021;-70
2023/02/27 03:26:51;;;;;;;0.90;0.90;;;6.40;91.20;;;;;;5067239;28;20093;-70
2023/02/27 03:29:29;;;;;;;1.15;1.10;;;6.30;91.20;;;;;;5067111;28;20025;-70
2023/02/27 03:32:03;;;;;;;1.00;1.00;;;6.30;91.20;;;;;;5049086;28;20033;-70
2023/02/27 03:34:34;;;;;;;1.40;1.30;;;6.20;91.20;;;;;;5049211;28;20512;-71
2023/02/27 03:37:28;;;;;;;1.70;1.60;;;6.20;91.30;;;;;;5067089;28;20025;-70
2023/02/27 03:40:24;;;;;;;1.88;1.77;;;6.20;91.40;;;;;;5067073;28;20072;-70
2023/02/27 03:42:53;;;;;;;1.90;1.80;;;6.30;91.50;;;;;;5067132;28;20276;-70
2023/02/27 03:46:01;;;;;;;2.50;2.30;;;6.50;91.50;;;;;;5066864;28;20028;-71
2023/02/27 03:48:27;;;;;;;2.40;2.20;;;6.70;91.50;;;;;;5069968;28;20020;-70
2023/02/27 03:50:52;;;;;;;2.38;2.17;;;6.80;91.40;;;;;;5053064;28;20032;-71
2023/02/27 03:53:40;;;;;;;2.50;2.30;;;6.80;91.30;;;;;;5070814;28;20039;-71
2023/02/27 03:56:08;;;;;;;2.33;2.13;;;6.90;91.30;;;;;;5070755;28;20047;-71
2023/02/27 03:58:34;;;;;;;2.38;2.17;;;6.90;91.20;;;;;;5052664;28;20079;-71
2023/02/27 04:01:00;;;;;;;;;;;7.00;91.30;;;;;;5053188;28;20056;-71
2023/02/27 04:03:26;;;;;;;2.42;2.22;;;7.00;91.30;;;;;;5070640;28;20324;-71
2023/02/27 04:05:52;;;;;;;2.60;2.40;;;7.00;91.30;;;;;;5052879;28;20068;-70
2023/02/27 04:08:32;;;;;;;2.70;2.50;;;7.10;91.30;;;;;;5070434;28;20052;-71
2023/02/27 04:11:07;;;;;;;2.70;2.50;;;7.10;91.30;;;;;;5070473;28;20025;-71
2023/02/27 04:14:20;;;;;;;2.72;2.53;;;7.20;91.30;;;;;;5070447;28;20031;-71
2023/02/27 04:17:05;;;;;;;2.72;2.53;;;7.20;91.30;;;;;;5025587;28;20033;-70
2023/02/27 04:19:30;;;;;;;2.40;2.20;;;7.30;91.30;;;;;;5052242;28;20021;-70
2023/02/27 04:22:27;;;;;;;2.40;2.20;;;7.30;91.20;;;;;;5070245;28;20029;-70
2023/02/27 04:25:01;;;;;;;2.40;2.20;;;7.20;91.20;;;;;;5070352;28;20029;-70
2023/02/27 04:27:52;;;;;;;2.30;2.10;;;7.20;91.20;;;;;;5070140;28;20166;-70
2023/02/27 04:30:44;;;;;;;2.15;1.95;;;7.20;91.20;;;;;;5070163;28;20103;-70
2023/02/27 04:33:42;;;;;;;2.35;2.15;;;7.20;91.20;;;;;;5052056;28;20021;-70
2023/02/27 04:36:27;;;;;;;;;;;7.20;91.20;;;;;;5070454;28;20419;-70
2023/02/27 04:38:58;;;;;;;1.95;1.85;;;7.20;91.20;;;;;;5070060;28;19946;-70
2023/02/27 04:41:48;;;;;;;2.58;2.38;;;7.20;91.10;;;;;;5069941;28;20032;-70
2023/02/27 04:44:16;;;;;;;2.38;2.17;;;7.10;91.10;;;;;;5069951;28;20039;-70
2023/02/27 04:46:44;;;;;;;2.20;2.00;;;7.00;91.20;;;;;;5051905;28;20048;-70
2023/02/27 04:49:40;;;;;;;2.40;2.20;;;7.00;91.20;;;;;;5069771;28;20216;-70
2023/02/27 04:52:20;;;;;;;2.50;2.30;;;7.00;91.20;;;;;;5040470;28;20044;-73
2023/02/27 04:54:53;;;;;;;2.58;2.38;;;7.00;91.20;;;;;;5069656;28;20021;-70
2023/02/27 04:57:25;;;;;;;2.70;2.50;;;7.00;91.20;;;;;;5051656;28;20492;-70
2023/02/27 04:59:54;;;;;;;2.70;2.50;;;6.90;91.20;;;;;;5068418;28;20023;-70
2023/02/27 05:02:31;;;;;;;2.60;2.40;;;6.90;91.20;;;;;;5069528;28;20037;-70
2023/02/27 05:05:02;;;;;;;2.47;2.28;;;6.80;91.10;;;;;;5069967;28;20021;-70
2023/02/27 05:07:39;;;;;;;2.80;2.60;;;6.70;91.10;;;;;;5069971;28;20024;-70
2023/02/27 05:10:11;;;;;;;3.10;2.90;;;6.60;91.20;;;;;;5069116;28;20051;-70
2023/02/27 05:13:08;;;;;;;2.80;2.60;;;6.60;91.30;;;;;;5069431;28;20021;-70
2023/02/27 05:15:51;;;;;;;3.00;2.80;;;6.60;91.40;;;;;;5068770;28;20426;-70
2023/02/27 05:18:19;;;;;;;2.90;2.70;;;6.60;91.40;;;;;;5069287;28;20035;-79
2023/02/27 05:21:08;;;;;;;2.95;2.75;;;6.60;91.40;;;;;;5051342;28;20051;-79
2023/02/27 05:23:57;;;;;;;3.20;3.00;;;6.50;91.40;;;;;;5069188;28;20025;-76
2023/02/27 05:26:59;;;;;;;3.10;2.90;;;6.50;91.40;;;;;;5069247;28;20025;-76
2023/02/27 05:29:39;;;;;;;3.42;3.20;;;6.50;91.40;;;;;;5068987;28;20468;-76
2023/02/27 05:32:40;;;;;;;3.72;3.42;;;6.50;91.40;;;;;;5051152;28;20512;-76
2023/02/27 05:35:25;;;;;;;3.67;3.38;;;6.60;91.40;;;;;;5064942;28;20035;-76
2023/02/27 05:38:01;;;;;;;3.78;3.47;;;6.60;91.40;;;;;;5068964;28;20025;-76
2023/02/27 05:40:55;;;;;;;3.70;3.40;;;6.60;91.40;;;;;;5069189;28;20032;-76
2023/02/27 05:43:23;;;;;;;4.30;4.00;;;6.60;91.40;;;;;;5066371;28;20032;-76
2023/02/27 05:45:52;;;;;;;4.55;4.25;;;6.60;91.40;;;;;;5050846;28;20051;-76
2023/02/27 05:48:26;;;;;;;4.32;4.03;;;6.70;91.40;;;;;;5068646;28;20166;-76
2023/02/27 05:50:53;;;;;;;3.83;3.53;;;6.70;91.30;;;;;;5050571;28;20028;-76
2023/02/27 05:53:23;;;;;;;3.60;3.30;;;6.70;91.30;;;;;;5068543;28;20031;-76
2023/02/27 05:55:52;;;;;;;3.70;3.40;;;6.80;91.30;;;;;;5068555;28;20533;-76
2023/02/27 05:58:20;;;;;;;3.53;3.22;;;6.80;91.30;;;;;;5068514;28;20465;-76
2023/02/27 06:01:01;;;;;;;3.35;3.13;;;6.90;91.40;;;;;;5050487;28;20111;-76
2023/02/27 06:03:29;;;;;;;2.60;2.40;;;6.90;91.40;;;;;;5068582;28;20568;-76
2023/02/27 06:05:57;;;;;;;2.50;2.30;;;7.00;91.40;;;;;;5068368;28;20074;-76
2023/02/27 06:08:23;;;;;;;2.20;2.00;;;7.00;91.40;;;;;;5050535;28;20121;-76
2023/02/27 06:10:49;;;;;;;2.25;2.05;;;7.00;91.50;;;;;;5067896;28;20496;-76
2023/02/27 06:13:16;;;;;;;1.73;1.63;;;7.10;91.50;;;;;;5050536;28;20040;-76
2023/02/27 06:15:42;;;;;;;1.40;1.30;;;7.10;91.50;;;;;;5068190;28;20021;-76
2023/02/27 06:18:10;;;;;;;1.50;1.40;;;7.20;91.50;;;;;;5068086;28;20017;-77
2023/02/27 06:20:36;;;;;;;1.10;1.10;;;7.20;91.50;;;;;;5067852;28;20029;-77
2023/02/27 06:23:01;;;;;;;1.10;1.10;;;7.30;91.50;;;;;;5068055;28;20034;-77
2023/02/27 06:25:27;;;;;;;0.90;0.90;;;7.30;91.50;;;;;;5050174;28;20042;-77
2023/02/27 06:27:53;;;;;;;0.80;0.80;;;7.30;91.50;;;;;;5067824;28;20038;-77
2023/02/27 06:30:19;;;;;;;0.77;0.77;;;7.30;91.50;;;;;;5067646;28;20045;-77
2023/02/27 06:32:44;;;;;;;0.50;0.50;;;7.30;91.50;;;;;;5067578;28;20056;-77
2023/02/27 06:35:11;;;;;;;0.40;0.40;;;7.30;91.60;;;;;;5068193;28;20328;-77
2023/02/27 06:37:37;;;;;;;0.40;0.40;;;7.30;91.60;;;;;;5033248;28;20584;-77
2023/02/27 06:40:04;;;;;;;0.30;0.30;;;7.30;91.60;;;;;;5067583;28;20035;-77
2023/02/27 06:42:31;;;;;;;0.20;0.20;;;7.40;91.60;;;;;;5067566;28;20036;-77
2023/02/27 06:44:57;;;;;;;0.20;0.20;;;7.40;91.50;;;;;;5067665;28;20016;-76
2023/02/27 06:47:23;;;;;;;0.10;0.10;;;7.40;91.50;;;;;;5068043;28;20155;-77
2023/02/27 06:49:49;;;;;;;0.10;0.10;;;7.40;91.50;;;;;;5067640;28;20387;-77
2023/02/27 06:52:14;;;;;;;0.10;0.10;;;7.40;91.60;;;;;;5067418;28;20033;-77
2023/02/27 06:54:40;;;;;;;0.08;0.08;;;7.40;91.60;;;;;;5067445;28;20029;-77
2023/02/27 06:57:06;;;;;;;0.00;0.00;;;7.50;91.60;;;;;;5067621;28;20026;-77
2023/02/27 06:59:31;;;;;;;0.00;0.00;;;7.50;91.60;;;;;;5067200;28;20024;-77
2023/02/27 07:01:59;;;;;;;0.00;0.00;;;7.50;91.60;;;;;;5067454;28;20491;-77
2023/02/27 07:04:25;;;;;;;0.00;0.00;;;7.50;91.50;;;;;;5069323;28;20037;-77
2023/02/27 07:06:51;;;;;;;0.00;0.00;;;7.50;91.50;;;;;;5067192;28;20528;-77
2023/02/27 07:09:17;;;;;;;0.00;0.00;;;7.50;91.50;;;;;;5067001;28;20395;-77
2023/02/27 07:11:43;;;;;;;0.00;0.00;;;7.50;91.60;;;;;;5066976;28;20037;-77
2023/02/27 07:14:09;;;;;;;0.00;0.00;;;7.50;91.60;;;;;;5066885;28;20047;-77
2023/02/27 07:16:35;;;;;;;0.00;0.00;;;7.50;91.60;;;;;;5066666;28;20028;-77
2023/02/27 07:19:00;;;;;;;0.00;0.00;;;7.50;91.80;;;;;;5049109;28;20494;-77
2023/02/27 07:21:26;;;;;;;0.00;0.00;;;7.50;91.60;;;;;;5067274;28;20055;-77
2023/02/27 07:23:52;;;;;;;0.00;0.00;;;7.60;91.60;;;;;;5071322;28;20060;-77
2023/02/27 07:26:17;;;;;;;0.00;0.00;;;7.60;91.60;;;;;;5071221;28;20388;-77
2023/02/27 07:28:43;;;;;;;0.00;0.00;;;7.50;91.60;;;;;;5071025;28;20037;-77
2023/02/27 07:31:09;;;;;;;0.00;0.00;;;7.60;91.60;;;;;;5053329;28;20025;-77
2023/02/27 07:33:34;;;;;;;0.00;0.00;;;7.60;91.70;;;;;;5071384;28;20071;-77
2023/02/27 07:36:00;;;;;;;0.00;0.00;;;7.70;91.70;;;;;;5071953;28;20031;-80
2023/02/27 07:38:27;;;;;;;0.00;0.00;;;7.70;91.60;;;;;;5071073;28;20025;-80
2023/02/27 07:40:53;;;;;;;0.00;0.00;;;7.70;91.60;;;;;;5053354;28;20120;-80
2023/02/27 07:43:28;;;;;;;0.00;0.00;;;7.70;91.60;;;;;;5075956;28;20041;-72
2023/02/27 07:45:54;;;;;;;0.00;0.00;;;7.70;91.60;;;;;;5052735;28;20049;-78
2023/02/27 07:48:20;;;;;;;0.00;0.00;;;7.70;91.60;;;;;;5071029;28;20039;-78
2023/02/27 07:50:45;;;;;;;0.00;0.00;;;7.70;91.60;;;;;;5052867;28;20123;-78
2023/02/27 07:53:12;;;;;;;0.00;0.00;;;7.80;91.70;;;;;;5070737;28;20108;-72
2023/02/27 07:55:38;;;;;;;0.00;0.00;;;7.80;91.70;;;;;;5052537;28;20024;-72
2023/02/27 07:58:03;;;;;;;0.00;0.00;;;7.80;91.60;;;;;;5052379;28;20028;-72
2023/02/27 08:00:29;;;;;;;0.00;0.00;;;7.80;91.70;;;;;;5070186;28;20033;-72
2023/02/27 08:02:55;;;;;;;0.00;0.00;;;7.90;91.60;;;;;;5070309;28;20033;-72
2023/02/27 08:05:21;;;;;;;0.00;0.00;;;7.90;91.60;;;;;;5070261;28;20488;-72
2023/02/27 08:07:46;;;;;;;0.00;0.00;;;7.90;91.60;;;;;;5070288;28;20031;-72
2023/02/27 08:10:14;;;;;;;0.00;0.00;;;7.90;91.60;;;;;;5070513;28;20361;-72
2023/02/27 08:12:40;;;;;;;0.00;0.00;;;7.90;91.60;;;;;;5053091;28;20031;-72
2023/02/27 08:15:07;;;;;;;0.00;0.00;;;8.00;91.60;;;;;;5052189;28;20384;-72
2023/02/27 08:17:32;;;;;;;0.00;0.00;;;8.00;91.60;;;;;;5070053;28;20043;-72
2023/02/27 08:19:58;;;;;;;0.00;0.00;;;8.00;91.60;;;;;;5052157;28;20028;-72
2023/02/27 08:22:24;;;;;;;0.00;0.00;;;8.00;91.60;;;;;;5052446;28;20116;-72
2023/02/27 08:24:49;;;;;;;0.00;0.00;;;8.00;91.60;;;;;;5070030;28;20028;-72
2023/02/27 08:27:15;;;;;;;0.00;0.00;;;8.10;91.60;;;;;;5070137;28;20086;-72
2023/02/27 08:29:42;;;;;;;0.00;0.00;;;8.10;91.60;;;;;;5051921;28;20108;-71
2023/02/27 08:32:08;;;;;;;0.00;0.00;;;8.10;91.60;;;;;;5051947;28;20123;-72
2023/02/27 08:34:34;;;;;;;0.00;0.00;;;8.00;91.60;;;;;;5069974;28;20494;-72
2023/02/27 08:37:00;;;;;;;0.00;0.00;;;8.00;91.60;;;;;;5051681;28;20146;-71
2023/02/27 08:39:25;;;;;;;0.00;0.00;;;7.90;91.60;;;;;;5069582;28;20601;-72
2023/02/27 08:41:51;;;;;;;0.00;0.00;;;8.00;91.70;;;;;;5051005;28;20127;-72
2023/02/27 08:44:18;;;;;;;0.00;0.00;;;8.00;91.70;;;;;;5051812;28;20475;-72
2023/02/27 08:46:44;;;;;;;0.00;0.00;;;7.90;91.70;;;;;;5069319;28;20040;-72
2023/02/27 08:49:09;;;;;;;0.00;0.00;;;7.90;91.70;;;;;;5069761;28;20490;-72
2023/02/27 08:51:35;;;;;;;0.00;0.00;;;8.00;91.70;;;;;;5069398;28;20036;-72
2023/02/27 08:54:01;;;;;;;0.00;0.00;;;8.00;91.70;;;;;;5069550;28;20056;-72
2023/02/27 08:56:27;;;;;;;0.00;0.00;;;7.90;91.60;;;;;;5069476;28;20056;-72
2023/02/27 08:58:53;;;;;;;0.00;0.00;;;7.90;91.90;;;;;;5051521;28;20104;-72
2023/02/27 09:01:19;;;;;;;0.00;0.00;;;7.90;91.70;;;;;;5034857;28;20024;-72
2023/02/27 09:03:45;;;;;;;0.00;0.00;;;7.90;91.70;;;;;;5051023;28;20403;-72
2023/02/27 09:06:11;;;;;;;0.00;0.00;;;8.00;91.70;;;;;;5069124;28;20107;-72
2023/02/27 09:08:36;;;;;;;0.00;0.00;;;8.00;91.70;;;;;;5068916;28;20036;-72
2023/02/27 09:11:02;;;;;;;0.00;0.00;;;8.00;91.70;;;;;;5068842;28;20055;-72
2023/02/27 09:13:28;;;;;;;0.00;0.00;;;8.10;91.70;;;;;;5068898;28;20468;-72
2023/02/27 09:15:54;;;;;;;0.00;0.00;;;8.10;91.70;;;;;;5068880;28;20024;-72
2023/02/27 09:18:20;;;;;;;0.00;0.00;;;8.10;91.70;;;;;;5068853;28;20159;-72
2023/02/27 09:20:47;;;;;;;;;;;8.10;91.70;;;;;;5051423;28;20036;-72
2023/02/27 09:23:13;;;;;;;0.00;0.00;;;8.20;91.70;;;;;;5069081;28;19944;-72
2023/02/27 09:25:39;;;;;;;0.00;0.00;;;8.20;91.70;;;;;;5069151;28;20466;-72
2023/02/27 09:28:05;;;;;;;0.00;0.00;;;8.20;91.60;;;;;;5050949;28;20039;-72
2023/02/27 09:30:32;;;;;;;0.00;0.00;;;8.20;91.60;;;;;;5068284;28;20499;-72
2023/02/27 09:32:57;;;;;;;0.00;0.00;;;8.10;91.70;;;;;;5068268;28;20379;-72
2023/02/27 09:35:27;;;;;;;0.00;0.00;;;8.10;91.70;;;;;;5068886;28;20135;-72
2023/02/27 09:37:53;;;;;;;0.00;0.00;;;8.10;91.70;;;;;;5068646;28;20040;-72
2023/02/27 09:40:24;;;;;;;0.00;0.00;;;8.10;91.70;;;;;;5069043;28;20022;-72
2023/02/27 09:42:52;;;;;;;0.00;0.00;;;8.10;92.00;;;;;;5051255;28;20097;-72
2023/02/27 09:45:24;;;;;;;0.00;0.00;;;8.10;91.70;;;;;;5068698;28;20464;-72
2023/02/27 09:47:58;;;;;;;0.00;0.00;;;8.20;91.80;;;;;;5069416;28;20032;-72
2023/02/27 09:50:36;;;;;;;0.00;0.00;;;8.20;91.80;;;;;;5069019;28;20055;-72
2023/02/27 09:53:04;;;;;;;0.00;0.00;;;8.30;91.80;;;;;;5069254;28;20461;-72
2023/02/27 09:55:34;;;;;;;0.00;0.00;;;8.40;91.80;;;;;;5069316;28;20025;-71
2023/02/27 09:58:13;;;;;;;0.00;0.00;;;8.40;91.80;;;;;;5069399;28;20047;-71
2023/02/27 10:00:50;;;;;;;0.00;0.00;;;8.40;92.00;;;;;;5068661;28;20070;-71
2023/02/27 10:03:34;;;;;;;;;;;8.60;92.10;;;;;;5069288;28;20334;-71
2023/02/27 10:06:18;;;;;;;0.00;0.00;;;8.90;92.10;;;;;;5068841;28;19904;-71
2023/02/27 10:09:02;;;;;;;0.00;0.00;;;9.10;92.20;;;;;;5067988;28;20035;-71
2023/02/27 10:11:53;;;;;;;0.00;0.00;;;9.20;92.10;;;;;;5049436;28;20024;-71
2023/02/27 10:14:44;;;;;;;0.00;0.00;;;9.50;92.40;;;;;;5053489;28;20124;-70
2023/02/27 10:17:23;;;;;;;0.00;0.00;;;9.90;92.30;;;;;;5047946;28;20021;-71
2023/02/27 10:19:51;;;;;;;0.00;0.00;;;10.00;92.20;;;;;;5046151;28;20025;-71
2023/02/27 10:22:29;;;;;;;0.00;0.00;;;10.00;92.20;;;;;;5046175;28;20029;-71
2023/02/27 10:25:17;;;;;;;0.00;0.00;;;10.20;92.40;;;;;;5043854;28;20516;-71
2023/02/27 10:27:45;;;;;;;0.00;0.00;;;10.60;92.50;;;;;;5043976;28;20037;-71
2023/02/27 10:30:19;;;;;;;0.00;0.00;;;11.00;92.50;;;;;;5026209;28;20452;-71
2023/02/27 10:32:47;;;;;;;0.00;0.00;;;11.20;92.30;;;;;;5046061;28;20017;-71
2023/02/27 10:35:37;;;;;;;0.00;0.00;;;11.20;92.10;;;;;;5029196;28;20055;-71
2023/02/27 10:38:16;;;;;;;0.00;0.00;;;11.20;92.00;;;;;;5043198;28;20047;-77
2023/02/27 10:40:42;;;;;;;0.00;0.00;;;11.10;91.90;;;;;;5048878;28;20043;-77
2023/02/27 10:43:12;;;;;;;0.00;0.00;;;11.00;92.00;;;;;;5053072;28;20039;-78
2023/02/27 10:45:37;;;;;;;0.00;0.00;;;10.90;91.90;;;;;;5057001;28;20375;-77
2023/02/27 10:48:04;;;;;;;0.00;0.00;;;10.80;92.10;;;;;;5030459;28;20070;-77
2023/02/27 10:50:38;;;;;;;0.00;0.00;;;11.20;92.80;;;;;;5030638;28;20033;-77
2023/02/27 10:53:15;;;;;;;0.00;0.00;;;12.00;93.40;;;;;;5053826;28;20027;-78
2023/02/27 10:55:43;;;;;;;0.00;0.00;;;13.30;93.90;;;;;;5053418;28;20037;-76
2023/02/27 10:58:18;;;;;;;0.00;0.00;;;14.40;93.30;;;;;;5031191;28;20758;-76
2023/02/27 11:00:56;;;;;;;0.00;0.00;;;14.60;92.50;;;;;;5029892;28;20060;-76
2023/02/27 11:03:37;;;;;;;0.00;0.00;;;14.30;92.40;;;;;;5049421;28;20090;-76
2023/02/27 11:06:19;;;;;;;0.00;0.00;;;13.70;92.00;;;;;;5049277;28;20033;-79
2023/02/27 11:09:17;;;;;;;0.00;0.00;;;12.80;91.90;;;;;;5048993;28;20038;-79
2023/02/27 11:11:43;;;;;;;0.00;0.00;;;12.20;92.10;;;;;;5048253;28;20081;-81
2023/02/27 11:14:27;;;;;;;0.00;0.00;;;11.60;92.20;;;;;;5050120;28;20036;-79
2023/02/27 11:16:59;;;;;;;0.00;0.00;;;11.30;92.30;;;;;;5049581;28;20060;-80
2023/02/27 11:19:36;;;;;;;0.00;0.00;;;11.20;92.30;;;;;;5032160;28;20393;-81
2023/02/27 11:22:13;;;;;;;0.00;0.00;;;11.20;92.80;;;;;;5032142;28;20033;-77
2023/02/27 11:24:40;;;;;;;0.00;0.00;;;11.50;93.00;;;;;;5049273;28;20116;-77
2023/02/27 11:27:25;;;;;;;;;;;12.10;93.50;;;;;;5049180;28;20086;-78
2023/02/27 11:30:03;;;;;;;0.00;0.00;;;12.90;93.50;;;;;;5048855;28;19909;-79
2023/02/27 11:32:41;;;;;;;0.00;0.00;;;13.30;93.00;;;;;;5048358;28;20021;-76
2023/02/27 11:35:37;;;;;;;0.00;0.00;;;13.50;92.80;;;;;;5047863;28;20083;-72
2023/02/27 11:38:06;;;;;;;0.00;0.00;;;14.00;93.20;;;;;;5047605;28;20029;-74
2023/02/27 11:40:38;;;;;;;0.00;0.00;;;14.50;93.00;;;;;;5029883;28;20097;-74
2023/02/27 11:43:17;;;;;;;0.00;0.00;;;14.40;92.40;;;;;;5030698;28;20484;-74
2023/02/27 11:45:50;;;;;;;0.00;0.00;;;14.10;92.40;;;;;;5047755;28;20095;-72
2023/02/27 11:48:23;;;;;;;0.00;0.00;;;13.90;92.80;;;;;;5047349;28;20480;-72
2023/02/27 11:51:14;;;;;;;0.00;0.00;;;14.40;93.50;;;;;;5029680;28;20025;-73
2023/02/27 11:54:02;;;;;;;0.00;0.00;;;14.90;93.20;;;;;;5047732;28;20036;-73
2023/02/27 11:56:35;;;;;;;0.00;0.00;;;15.10;93.00;;;;;;5029528;28;20358;-70
2023/02/27 11:59:06;;;;;;;0.00;0.00;;;15.20;92.80;;;;;;5046970;28;20013;-70
2023/02/27 12:01:46;;;;;;;0.00;0.00;;;14.80;92.30;;;;;;5047276;28;20412;-72
2023/02/27 12:04:50;;;;;;;0.00;0.00;;;14.10;91.90;;;;;;5034752;28;20032;-73
2023/02/27 12:07:25;;;;;;;0.00;0.00;;;13.30;91.80;;;;;;5005356;28;20037;-70
2023/02/27 12:10:18;;;;;;;2.05;0.13;;;12.40;92.00;;;;;;5029718;28;20033;-71
2023/02/27 12:12:53;;;;;;;0.00;0.00;;;12.50;93.40;;;;;;5053512;28;20037;-70
2023/02/27 12:15:33;;;;;;;0.10;0.00;;;13.20;93.70;;;;;;5064800;28;20130;-71
2023/02/27 12:18:16;;;;;;;0.00;0.00;;;13.90;93.70;;;;;;5070741;28;20137;-70
2023/02/27 12:21:22;;;;;;;0.00;0.00;;;14.30;93.20;;;;;;5052654;28;20472;-75
2023/02/27 12:24:03;;;;;;;0.00;0.00;;;14.20;92.80;;;;;;5059107;28;20120;-70
2023/02/27 12:26:37;;;;;;;0.00;0.00;;;13.60;92.40;;;;;;5071128;28;20105;-75
2023/02/27 12:29:08;;;;;;;0.00;0.00;;;12.90;92.40;;;;;;5070702;28;20086;-72
2023/02/27 12:31:34;;;;;;;0.00;0.00;;;12.20;92.50;;;;;;5072082;28;20478;-76
2023/02/27 12:34:45;;;;;;;0.00;0.00;;;11.90;93.20;;;;;;5071383;28;20107;-77
2023/02/27 12:37:16;;;;;;;0.00;0.00;;;12.30;93.90;;;;;;5067294;28;20037;-77
2023/02/27 12:39:44;;;;;;;0.00;0.00;;;12.40;93.50;;;;;;5052889;28;20043;-78
2023/02/27 12:42:48;;;;;;;0.00;0.00;;;12.60;93.40;;;;;;5070997;28;20036;-76
2023/02/27 12:45:38;;;;;;;0.00;0.00;;;12.50;93.00;;;;;;4988644;28;20039;-77
2023/02/27 12:48:35;;;;;;;0.00;0.00;;;12.30;92.60;;;;;;5071608;28;20028;-80
2023/02/27 12:51:29;;;;;;;0.00;0.00;;;12.10;92.70;;;;;;5071455;28;20028;-78
2023/02/27 12:54:31;;;;;;;0.00;0.00;;;12.10;92.70;;;;;;5071359;28;20036;-74
2023/02/27 12:57:22;;;;;;;0.00;0.00;;;12.00;92.40;;;;;;5071722;28;20081;-78
2023/02/27 13:00:05;;;;;;;0.00;0.00;;;11.60;92.30;;;;;;5052804;28;20016;-75
2023/02/27 13:03:04;;;;;;;0.00;0.00;;;11.40;92.30;;;;;;5070946;28;20483;-77
2023/02/27 13:05:46;;;;;;;0.00;0.00;;;11.10;92.30;;;;;;5071130;28;20021;-76
2023/02/27 13:08:37;;;;;;;0.00;0.00;;;11.10;92.40;;;;;;5052935;28;20129;-77
2023/02/27 13:11:35;;;;;;;0.00;0.00;;;11.10;92.60;;;;;;5069948;28;20396;-78
2023/02/27 13:14:18;;;;;;;0.00;0.00;;;11.20;92.60;;;;;;5069993;28;20465;-79
2023/02/27 13:16:49;;;;;;;0.00;0.00;;;11.30;92.60;;;;;;5070659;28;20020;-77
2023/02/27 13:19:38;;;;;;;0.00;0.00;;;11.40;92.60;;;;;;5070471;28;20574;-78
2023/02/27 13:22:19;;;;;;;0.00;0.00;;;11.40;92.50;;;;;;5070686;28;20024;-78
2023/02/27 13:24:49;;;;;;;0.00;0.00;;;11.40;92.50;;;;;;5066162;28;20480;-78
2023/02/27 13:27:43;;;;;;;0.00;0.00;;;11.40;92.40;;;;;;5064620;28;20065;-78
2023/02/27 13:30:28;;;;;;;0.00;0.00;;;11.40;92.40;;;;;;5059461;28;20496;-78